createdAt,value
2019-05-15T00:00:02.857Z,5.8
2019-05-15T00:01:02.675Z,5.8
2019-05-15T00:02:03.588Z,5.8
2019-05-15T00:03:03.266Z,5.8
2019-05-15T00:04:03.641Z,5.9
2019-05-15T00:05:03.363Z,5.9
2019-05-15T00:06:03.340Z,5.8
2019-05-15T00:07:03.119Z,5.9
2019-05-15T00:08:03.497Z,5.8
2019-05-15T00:09:03.251Z,5.8
2019-05-15T00:10:03.330Z,5.9
2019-05-15T00:11:03.262Z,5.9
2019-05-15T00:12:03.304Z,5.9
2019-05-15T00:13:03.023Z,5.9
2019-05-15T00:14:02.940Z,5.9
2019-05-15T00:15:03.225Z,5.9
2019-05-15T00:16:02.985Z,5.8
2019-05-15T00:17:03.029Z,5.9
2019-05-15T00:18:02.839Z,5.9
2019-05-15T00:19:03.055Z,5.9
2019-05-15T00:20:02.605Z,5.9
2019-05-15T00:21:02.864Z,5.9
2019-05-15T00:22:02.751Z,5.8
2019-05-15T00:23:03.407Z,5.8
2019-05-15T00:24:02.605Z,5.8
2019-05-15T00:25:02.868Z,5.8
2019-05-15T00:26:02.782Z,5.8
2019-05-15T00:27:03.240Z,5.8
2019-05-15T00:28:02.647Z,5.8
2019-05-15T00:29:19.574Z,5.8
2019-05-15T00:30:03.423Z,5.8
2019-05-15T00:31:03.350Z,5.8
2019-05-15T00:32:03.196Z,5.8
2019-05-15T00:33:03.439Z,5.9
2019-05-15T00:34:03.215Z,5.9
2019-05-15T00:35:03.329Z,5.8
2019-05-15T00:36:03.343Z,5.8
2019-05-15T00:37:03.157Z,5.8
2019-05-15T00:38:03.223Z,5.8
2019-05-15T00:39:03.275Z,5.8
2019-05-15T00:40:02.974Z,5.7
2019-05-15T00:41:02.974Z,5.7
2019-05-15T00:42:02.798Z,5.7
2019-05-15T00:43:02.876Z,5.7
2019-05-15T00:44:02.846Z,5.7
2019-05-15T00:45:03.130Z,5.7
2019-05-15T00:46:02.898Z,5.7
2019-05-15T00:47:02.740Z,5.7
2019-05-15T00:48:02.786Z,5.8
2019-05-15T00:49:02.662Z,5.8
2019-05-15T00:50:02.695Z,5.7
2019-05-15T00:51:03.592Z,5.7
2019-05-15T00:52:02.934Z,5.7
2019-05-15T00:53:02.717Z,5.7
2019-05-15T00:54:03.427Z,5.8
2019-05-15T00:55:03.367Z,5.7
2019-05-15T00:56:03.186Z,5.7
2019-05-15T00:57:03.445Z,5.7
2019-05-15T00:58:03.278Z,5.7
2019-05-15T00:59:03.395Z,5.8
2019-05-15T01:00:03.904Z,5.8
2019-05-15T01:01:03.399Z,5.7
2019-05-15T01:02:03.597Z,5.7
2019-05-15T01:03:03.353Z,5.7
2019-05-15T01:04:03.577Z,5.8
2019-05-15T01:05:03.246Z,5.8
2019-05-15T01:06:03.123Z,5.8
2019-05-15T01:07:03.282Z,5.8
2019-05-15T01:08:03.176Z,5.8
2019-05-15T01:09:03.066Z,5.8
2019-05-15T01:10:03.178Z,5.8
2019-05-15T01:11:02.948Z,5.8
2019-05-15T01:12:03.227Z,5.7
2019-05-15T01:13:03.029Z,5.7
2019-05-15T01:14:03.039Z,5.8
2019-05-15T01:15:02.933Z,5.7
2019-05-15T01:16:03.133Z,5.7
2019-05-15T01:17:03.042Z,5.8
2019-05-15T01:18:03.381Z,5.7
2019-05-15T01:19:02.817Z,5.7
2019-05-15T01:20:02.680Z,5.8
2019-05-15T01:21:02.848Z,5.7
2019-05-15T01:22:03.543Z,5.7
2019-05-15T01:23:02.522Z,5.7
2019-05-15T01:24:02.695Z,5.7
2019-05-15T01:25:02.992Z,5.8
2019-05-15T01:26:02.882Z,5.8
2019-05-15T01:27:03.628Z,5.7
2019-05-15T01:28:02.866Z,5.7
2019-05-15T01:29:03.583Z,5.7
2019-05-15T01:30:03.663Z,5.8
2019-05-15T01:31:03.383Z,5.7
2019-05-15T01:32:03.412Z,5.8
2019-05-15T01:33:03.244Z,5.7
2019-05-15T01:34:03.706Z,5.7
2019-05-15T01:35:03.324Z,5.8
2019-05-15T01:36:03.411Z,5.7
2019-05-15T01:37:03.491Z,5.7
2019-05-15T01:38:03.366Z,5.8
2019-05-15T01:39:03.269Z,5.8
2019-05-15T01:40:03.331Z,5.7
2019-05-15T01:41:03.406Z,5.8
2019-05-15T01:42:03.231Z,5.8
2019-05-15T01:43:03.155Z,5.8
2019-05-15T01:44:03.441Z,5.8
2019-05-15T01:45:03.330Z,5.8
2019-05-15T01:46:03.419Z,5.8
2019-05-15T01:47:02.938Z,5.8
2019-05-15T01:48:02.945Z,5.8
2019-05-15T01:49:03.073Z,5.8
2019-05-15T01:50:02.892Z,5.8
2019-05-15T01:51:03.014Z,5.8
2019-05-15T01:52:02.965Z,5.8
2019-05-15T01:53:02.817Z,5.8
2019-05-15T01:54:02.968Z,5.8
2019-05-15T01:55:02.800Z,5.8
2019-05-15T01:56:03.417Z,5.8
2019-05-15T01:57:02.911Z,5.8
2019-05-15T01:58:02.862Z,5.7
2019-05-15T01:59:02.656Z,5.8
2019-05-15T02:00:04.045Z,5.8
2019-05-15T02:01:04.143Z,5.8
2019-05-15T02:02:03.606Z,5.8
2019-05-15T02:03:03.401Z,5.8
2019-05-15T02:04:03.429Z,5.8
2019-05-15T02:05:02.967Z,5.7
2019-05-15T02:06:03.371Z,5.8
2019-05-15T02:07:03.477Z,5.8
2019-05-15T02:08:03.815Z,5.7
2019-05-15T02:09:03.806Z,5.7
2019-05-15T02:10:03.346Z,5.7
2019-05-15T02:11:03.006Z,5.7
2019-05-15T02:12:03.674Z,5.7
2019-05-15T02:13:03.223Z,5.7
2019-05-15T02:14:03.765Z,5.7
2019-05-15T02:15:03.444Z,5.8
2019-05-15T02:16:03.525Z,5.8
2019-05-15T02:17:03.288Z,5.7
2019-05-15T02:18:03.267Z,5.7
2019-05-15T02:19:02.989Z,5.8
2019-05-15T02:20:02.882Z,5.7
2019-05-15T02:21:10.428Z,5.7
2019-05-15T02:22:02.734Z,5.8
2019-05-15T02:23:03.158Z,5.8
2019-05-15T02:24:02.775Z,5.7
2019-05-15T02:25:02.977Z,5.7
2019-05-15T02:26:02.583Z,5.7
2019-05-15T02:27:02.809Z,5.8
2019-05-15T02:28:03.759Z,5.7
2019-05-15T02:29:03.030Z,5.7
2019-05-15T02:30:33.462Z,5.6
2019-05-15T02:31:02.717Z,5.7
2019-05-15T02:32:02.913Z,5.6
2019-05-15T02:33:03.797Z,5.6
2019-05-15T02:34:03.493Z,5.6
2019-05-15T02:35:03.391Z,5.6
2019-05-15T02:36:03.609Z,5.6
2019-05-15T02:37:03.333Z,5.6
2019-05-15T02:38:03.636Z,5.7
2019-05-15T02:39:03.415Z,5.6
2019-05-15T02:40:03.732Z,5.6
2019-05-15T02:41:03.538Z,5.6
2019-05-15T02:42:03.333Z,5.6
2019-05-15T02:43:03.397Z,5.6
2019-05-15T02:44:03.287Z,5.7
2019-05-15T02:45:03.417Z,5.7
2019-05-15T02:46:03.293Z,5.6
2019-05-15T02:47:03.398Z,5.7
2019-05-15T02:48:02.934Z,5.7
2019-05-15T02:49:03.601Z,5.6
2019-05-15T02:50:03.250Z,5.6
2019-05-15T02:51:03.210Z,5.6
2019-05-15T02:52:03.106Z,5.6
2019-05-15T02:53:03.292Z,5.6
2019-05-15T02:54:03.253Z,5.6
2019-05-15T02:55:03.215Z,5.6
2019-05-15T02:56:03.164Z,5.6
2019-05-15T02:57:03.093Z,5.6
2019-05-15T02:58:02.959Z,5.6
2019-05-15T02:59:02.956Z,5.6
2019-05-15T03:00:02.834Z,5.6
2019-05-15T03:01:02.804Z,5.6
2019-05-15T03:02:03.111Z,5.6
2019-05-15T03:03:02.750Z,5.6
2019-05-15T03:04:02.665Z,5.6
2019-05-15T03:05:02.841Z,5.6
2019-05-15T03:06:02.766Z,5.6
2019-05-15T03:07:02.961Z,5.6
2019-05-15T03:08:03.415Z,5.6
2019-05-15T03:09:02.640Z,5.6
2019-05-15T03:10:03.011Z,5.6
2019-05-15T03:11:03.405Z,5.6
2019-05-15T03:12:03.442Z,5.5
2019-05-15T03:13:03.667Z,5.5
2019-05-15T03:14:03.460Z,5.5
2019-05-15T03:15:03.678Z,5.5
2019-05-15T03:16:03.546Z,5.5
2019-05-15T03:17:03.746Z,5.6
2019-05-15T03:18:03.684Z,5.5
2019-05-15T03:19:03.290Z,5.5
2019-05-15T03:20:03.554Z,5.5
2019-05-15T03:21:03.189Z,5.4
2019-05-15T03:22:03.341Z,5.5
2019-05-15T03:23:03.406Z,5.5
2019-05-15T03:24:03.452Z,5.5
2019-05-15T03:25:03.343Z,5.5
2019-05-15T03:26:04.668Z,5.5
2019-05-15T03:27:03.202Z,5.5
2019-05-15T03:28:03.340Z,5.5
2019-05-15T03:29:03.529Z,5.4
2019-05-15T03:30:03.153Z,5.4
2019-05-15T03:31:58.327Z,5.5
2019-05-15T03:32:40.654Z,5.5
2019-05-15T03:34:04.395Z,5.5
2019-05-15T03:35:07.702Z,5.5
2019-05-15T03:36:04.075Z,5.5
2019-05-15T03:37:04.501Z,5.5
2019-05-15T03:38:03.031Z,5.5
2019-05-15T03:39:03.619Z,5.5
2019-05-15T03:40:02.770Z,5.5
2019-05-15T03:41:02.461Z,5.5
2019-05-15T03:42:02.803Z,5.5
2019-05-15T03:43:02.876Z,5.4
2019-05-15T03:44:02.832Z,5.4
2019-05-15T03:45:03.761Z,5.5
2019-05-15T03:46:03.732Z,5.5
2019-05-15T03:47:03.645Z,5.6
2019-05-15T03:48:02.898Z,5.6
2019-05-15T03:49:03.367Z,5.6
2019-05-15T03:50:03.470Z,5.6
2019-05-15T03:51:03.549Z,5.5
2019-05-15T03:52:03.285Z,5.6
2019-05-15T03:53:03.335Z,5.5
2019-05-15T03:54:03.312Z,5.5
2019-05-15T03:55:03.236Z,5.5
2019-05-15T03:56:03.322Z,5.4
2019-05-15T03:57:03.033Z,5.4
2019-05-15T03:58:03.281Z,5.4
2019-05-15T03:59:03.354Z,5.4
2019-05-15T04:00:03.224Z,5.4
2019-05-15T04:01:03.351Z,5.4
2019-05-15T04:02:02.974Z,5.4
2019-05-15T04:03:03.249Z,5.4
2019-05-15T04:04:03.030Z,5.4
2019-05-15T04:05:03.031Z,5.4
2019-05-15T04:06:03.027Z,5.4
2019-05-15T04:07:02.873Z,5.4
2019-05-15T04:08:02.922Z,5.4
2019-05-15T04:09:02.898Z,5.4
2019-05-15T04:10:02.931Z,5.4
2019-05-15T04:11:02.805Z,5.4
2019-05-15T04:12:02.850Z,5.4
2019-05-15T04:13:02.780Z,5.4
2019-05-15T04:14:02.681Z,5.4
2019-05-15T04:15:02.967Z,5.4
2019-05-15T04:16:02.865Z,5.4
2019-05-15T04:17:03.501Z,5.4
2019-05-15T04:18:02.772Z,5.4
2019-05-15T04:19:02.809Z,5.4
2019-05-15T04:20:02.825Z,5.4
2019-05-15T04:21:03.595Z,5.4
2019-05-15T04:22:03.242Z,5.4
2019-05-15T04:23:02.575Z,5.4
2019-05-15T04:24:02.303Z,5.4
2019-05-15T04:25:03.514Z,5.4
2019-05-15T04:26:03.536Z,5.4
2019-05-15T04:27:11.010Z,5.4
2019-05-15T04:28:03.524Z,5.4
2019-05-15T04:29:03.327Z,5.4
2019-05-15T04:30:03.304Z,5.4
2019-05-15T04:31:03.503Z,5.4
2019-05-15T04:32:09.554Z,5.4
2019-05-15T04:33:03.429Z,5.4
2019-05-15T04:34:03.293Z,5.4
2019-05-15T04:35:03.179Z,5.4
2019-05-15T04:36:03.151Z,5.4
2019-05-15T04:37:03.127Z,5.4
2019-05-15T04:38:02.996Z,5.4
2019-05-15T04:39:02.766Z,5.4
2019-05-15T04:40:03.095Z,5.5
2019-05-15T04:41:02.757Z,5.4
2019-05-15T04:42:03.065Z,5.5
2019-05-15T04:43:03.116Z,5.4
2019-05-15T04:44:02.616Z,5.4
2019-05-15T04:45:03.713Z,5.5
2019-05-15T04:46:03.461Z,5.5
2019-05-15T04:47:03.571Z,5.5
2019-05-15T04:48:03.733Z,5.5
2019-05-15T04:49:02.613Z,5.5
2019-05-15T04:50:03.647Z,5.4
2019-05-15T04:51:03.392Z,5.5
2019-05-15T04:52:04.160Z,5.4
2019-05-15T04:53:03.434Z,5.4
2019-05-15T04:54:03.258Z,5.4
2019-05-15T04:55:03.478Z,5.5
2019-05-15T04:56:03.216Z,5.4
2019-05-15T04:57:03.336Z,5.4
2019-05-15T04:58:03.214Z,5.4
2019-05-15T04:59:03.189Z,5.5
2019-05-15T05:00:03.346Z,5.5
2019-05-15T05:01:03.252Z,5.6
2019-05-15T05:02:26.959Z,5.6
2019-05-15T05:03:03.029Z,5.6
2019-05-15T05:04:02.974Z,5.6
2019-05-15T05:05:02.657Z,5.6
2019-05-15T05:06:03.280Z,5.6
2019-05-15T05:07:03.262Z,5.6
2019-05-15T05:08:03.241Z,5.6
2019-05-15T05:09:02.964Z,5.6
2019-05-15T05:10:02.945Z,5.6
2019-05-15T05:11:02.774Z,5.5
2019-05-15T05:12:02.782Z,5.6
2019-05-15T05:13:02.712Z,5.5
2019-05-15T05:14:02.982Z,5.5
2019-05-15T05:15:02.928Z,5.6
2019-05-15T05:16:03.533Z,5.6
2019-05-15T05:17:02.727Z,5.6
2019-05-15T05:18:03.518Z,5.6
2019-05-15T05:19:03.339Z,5.7
2019-05-15T05:20:03.454Z,5.6
2019-05-15T05:21:03.405Z,5.7
2019-05-15T05:22:03.458Z,5.7
2019-05-15T05:23:03.418Z,5.6
2019-05-15T05:24:03.525Z,5.6
2019-05-15T05:25:03.490Z,5.6
2019-05-15T05:26:03.514Z,5.7
2019-05-15T05:27:03.534Z,5.7
2019-05-15T05:28:03.326Z,5.8
2019-05-15T05:29:02.929Z,5.7
2019-05-15T05:30:03.446Z,5.7
2019-05-15T05:31:02.873Z,5.7
2019-05-15T05:32:03.368Z,5.7
2019-05-15T05:33:03.093Z,5.7
2019-05-15T05:34:03.286Z,5.7
2019-05-15T05:35:03.257Z,5.7
2019-05-15T05:36:03.127Z,5.6
2019-05-15T05:37:03.056Z,5.6
2019-05-15T05:38:03.162Z,5.7
2019-05-15T05:39:03.100Z,5.7
2019-05-15T05:40:02.967Z,5.6
2019-05-15T05:41:03.091Z,5.7
2019-05-15T05:42:02.899Z,5.7
2019-05-15T05:43:02.868Z,5.7
2019-05-15T05:44:02.950Z,5.6
2019-05-15T05:45:03.166Z,5.7
2019-05-15T05:46:02.827Z,5.7
2019-05-15T05:47:03.300Z,5.7
2019-05-15T05:48:02.816Z,5.7
2019-05-15T05:49:02.814Z,5.7
2019-05-15T05:50:02.804Z,5.7
2019-05-15T05:51:03.702Z,5.8
2019-05-15T05:52:02.795Z,5.8
2019-05-15T05:53:03.383Z,5.7
2019-05-15T05:54:03.337Z,5.7
2019-05-15T05:55:03.290Z,5.8
2019-05-15T05:56:02.636Z,5.8
2019-05-15T05:57:03.551Z,5.8
2019-05-15T05:58:02.654Z,5.8
2019-05-15T05:59:03.301Z,5.8
2019-05-15T06:00:03.501Z,5.8
2019-05-15T06:01:03.447Z,5.8
2019-05-15T06:02:03.050Z,5.8
2019-05-15T06:03:03.062Z,5.8
2019-05-15T06:04:03.212Z,5.8
2019-05-15T06:05:03.269Z,5.9
2019-05-15T06:06:03.193Z,5.9
2019-05-15T06:07:14.630Z,5.9
2019-05-15T06:08:02.854Z,5.8
2019-05-15T06:09:03.269Z,5.9
2019-05-15T06:10:03.034Z,5.9
2019-05-15T06:11:03.126Z,5.8
2019-05-15T06:12:03.075Z,5.9
2019-05-15T06:13:03.207Z,5.9
2019-05-15T06:14:03.090Z,5.9
2019-05-15T06:15:03.029Z,5.9
2019-05-15T06:16:03.038Z,5.9
2019-05-15T06:17:03.015Z,5.9
2019-05-15T06:18:02.590Z,6
2019-05-15T06:19:02.935Z,6
2019-05-15T06:20:03.117Z,6
2019-05-15T06:21:02.767Z,6.1
2019-05-15T06:22:02.860Z,6.1
2019-05-15T06:23:02.672Z,6
2019-05-15T06:24:12.248Z,6.1
2019-05-15T06:25:05.456Z,6.1
2019-05-15T06:26:03.485Z,5.9
2019-05-15T06:27:02.448Z,6
2019-05-15T06:28:03.298Z,6
2019-05-15T06:29:03.611Z,6.1
2019-05-15T06:30:03.303Z,6
2019-05-15T06:31:03.374Z,6
2019-05-15T06:32:03.290Z,6
2019-05-15T06:33:13.696Z,6
2019-05-15T06:34:03.347Z,6
2019-05-15T06:35:02.965Z,6
2019-05-15T06:36:03.339Z,6.1
2019-05-15T06:37:03.283Z,6.1
2019-05-15T06:38:02.803Z,6.1
2019-05-15T06:39:03.117Z,6.1
2019-05-15T06:40:03.123Z,6.1
2019-05-15T06:41:02.991Z,6.1
2019-05-15T06:42:03.114Z,6.2
2019-05-15T06:43:02.921Z,6.2
2019-05-15T06:44:02.978Z,6.3
2019-05-15T06:45:02.926Z,6.3
2019-05-15T06:46:02.908Z,6.3
2019-05-15T06:47:02.778Z,6.3
2019-05-15T06:48:02.853Z,6.3
2019-05-15T06:49:02.799Z,6.3
2019-05-15T06:50:02.575Z,6.3
2019-05-15T06:51:02.934Z,6.3
2019-05-15T06:52:03.444Z,6.3
2019-05-15T06:53:02.793Z,6.3
2019-05-15T06:54:02.724Z,6.3
2019-05-15T06:55:03.695Z,6.3
2019-05-15T06:56:03.622Z,6.3
2019-05-15T06:57:03.672Z,6.3
2019-05-15T06:58:03.491Z,6.4
2019-05-15T06:59:03.282Z,6.4
2019-05-15T07:00:03.414Z,6.4
2019-05-15T07:01:03.523Z,6.4
2019-05-15T07:02:03.524Z,6.4
2019-05-15T07:03:26.772Z,6.4
2019-05-15T07:04:03.376Z,6.4
2019-05-15T07:05:03.965Z,6.4
2019-05-15T07:06:03.354Z,6.4
2019-05-15T07:07:03.186Z,6.5
2019-05-15T07:08:02.972Z,6.5
2019-05-15T07:09:03.333Z,6.5
2019-05-15T07:10:03.379Z,6.5
2019-05-15T07:11:03.497Z,6.5
2019-05-15T07:12:03.136Z,6.5
2019-05-15T07:13:03.060Z,6.5
2019-05-15T07:14:02.970Z,6.5
2019-05-15T07:15:03.272Z,6.6
2019-05-15T07:16:02.733Z,6.6
2019-05-15T07:17:02.900Z,6.6
2019-05-15T07:18:03.042Z,6.6
2019-05-15T07:19:02.889Z,6.6
2019-05-15T07:20:02.833Z,6.6
2019-05-15T07:21:02.593Z,6.6
2019-05-15T07:22:02.833Z,6.6
2019-05-15T07:23:03.548Z,6.6
2019-05-15T07:24:03.618Z,6.5
2019-05-15T07:25:03.497Z,6.6
2019-05-15T07:26:02.754Z,6.6
2019-05-15T07:27:03.563Z,6.6
2019-05-15T07:28:03.775Z,6.6
2019-05-15T07:29:03.521Z,6.5
2019-05-15T07:30:02.472Z,6.5
2019-05-15T07:31:03.368Z,6.6
2019-05-15T07:32:03.430Z,6.6
2019-05-15T07:33:03.168Z,6.6
2019-05-15T07:34:03.274Z,6.5
2019-05-15T07:35:03.355Z,6.6
2019-05-15T07:36:03.369Z,6.5
2019-05-15T07:37:03.434Z,6.5
2019-05-15T07:38:03.361Z,6.6
2019-05-15T07:39:03.391Z,6.6
2019-05-15T07:40:02.979Z,6.6
2019-05-15T07:41:04.770Z,6.6
2019-05-15T07:42:03.254Z,6.6
2019-05-15T07:43:03.190Z,6.7
2019-05-15T07:44:03.050Z,6.7
2019-05-15T07:45:03.368Z,6.7
2019-05-15T07:46:02.839Z,6.6
2019-05-15T07:47:02.859Z,6.7
2019-05-15T07:48:02.943Z,6.7
2019-05-15T07:49:03.131Z,6.7
2019-05-15T07:50:02.927Z,6.8
2019-05-15T07:51:02.841Z,6.8
2019-05-15T07:52:03.094Z,6.8
2019-05-15T07:53:02.838Z,6.8
2019-05-15T07:54:02.975Z,6.8
2019-05-15T07:55:02.956Z,6.9
2019-05-15T07:56:03.029Z,6.9
2019-05-15T07:57:02.942Z,6.9
2019-05-15T07:58:03.771Z,6.9
2019-05-15T07:59:02.981Z,6.9
2019-05-15T08:00:02.960Z,6.9
2019-05-15T08:01:05.737Z,6.9
2019-05-15T08:02:03.506Z,6.9
2019-05-15T08:03:02.876Z,6.9
2019-05-15T08:04:32.695Z,6.9
2019-05-15T08:05:03.208Z,6.9
2019-05-15T08:06:03.425Z,7
2019-05-15T08:07:03.454Z,6.9
2019-05-15T08:08:03.449Z,6.9
2019-05-15T08:09:03.228Z,6.9
2019-05-15T08:10:03.358Z,7
2019-05-15T08:11:24.726Z,7
2019-05-15T08:12:03.539Z,7
2019-05-15T08:13:02.790Z,7
2019-05-15T08:14:03.925Z,7
2019-05-15T08:15:02.821Z,7.1
2019-05-15T08:16:03.189Z,7.1
2019-05-15T08:17:02.705Z,7.1
2019-05-15T08:18:13.112Z,7.1
2019-05-15T08:19:03.469Z,7.1
2019-05-15T08:20:02.762Z,7.1
2019-05-15T08:21:02.955Z,7.1
2019-05-15T08:22:03.606Z,7.3
2019-05-15T08:23:02.643Z,7.3
2019-05-15T08:24:03.693Z,7.4
2019-05-15T08:25:16.212Z,7.4
2019-05-15T08:26:03.570Z,7.4
2019-05-15T08:27:03.763Z,7.6
2019-05-15T08:28:03.543Z,7.6
2019-05-15T08:29:03.643Z,7.8
2019-05-15T08:30:03.526Z,7.8
2019-05-15T08:31:10.646Z,7.8
2019-05-15T08:32:03.436Z,7.9
2019-05-15T08:33:03.240Z,7.8
2019-05-15T08:34:19.258Z,7.8
2019-05-15T08:35:03.096Z,7.9
2019-05-15T08:36:03.246Z,8
2019-05-15T08:37:03.162Z,8.2
2019-05-15T08:38:03.065Z,8.3
2019-05-15T08:39:02.898Z,8.4
2019-05-15T08:40:04.141Z,8.4
2019-05-15T08:41:03.139Z,8.4
2019-05-15T08:42:03.130Z,8.4
2019-05-15T08:43:03.102Z,8.6
2019-05-15T08:44:03.533Z,8.6
2019-05-15T08:45:03.127Z,8.6
2019-05-15T08:46:02.950Z,8.6
2019-05-15T08:47:03.051Z,8.6
2019-05-15T08:48:02.955Z,8.9
2019-05-15T08:49:02.757Z,8.8
2019-05-15T08:50:02.808Z,8.8
2019-05-15T08:51:03.707Z,8.8
2019-05-15T08:52:07.722Z,8.8
2019-05-15T08:53:03.826Z,9
2019-05-15T08:54:03.693Z,9
2019-05-15T08:55:02.940Z,8.9
2019-05-15T08:56:03.533Z,8.8
2019-05-15T08:57:02.958Z,8.7
2019-05-15T08:58:14.129Z,8.8
2019-05-15T08:59:03.451Z,8.7
2019-05-15T09:00:03.541Z,8.7
2019-05-15T09:01:03.569Z,8.8
2019-05-15T09:02:03.740Z,8.8
2019-05-15T09:03:02.588Z,8.7
2019-05-15T09:04:03.777Z,8.8
2019-05-15T09:05:03.466Z,8.9
2019-05-15T09:06:02.905Z,8.9
2019-05-15T09:07:03.482Z,8.9
2019-05-15T09:08:03.500Z,9
2019-05-15T09:09:03.506Z,9
2019-05-15T09:10:03.360Z,9
2019-05-15T09:11:03.706Z,9.1
2019-05-15T09:12:03.284Z,9.2
2019-05-15T09:13:03.311Z,9.1
2019-05-15T09:14:03.226Z,8.9
2019-05-15T09:15:03.477Z,9.1
2019-05-15T09:16:03.317Z,9
2019-05-15T09:17:02.994Z,9
2019-05-15T09:18:19.216Z,9.1
2019-05-15T09:19:03.110Z,9.2
2019-05-15T09:20:03.187Z,9.3
2019-05-15T09:21:03.020Z,9.4
2019-05-15T09:22:02.994Z,9.3
2019-05-15T09:23:03.888Z,9.3
2019-05-15T09:24:03.840Z,9.2
2019-05-15T09:25:03.961Z,9.3
2019-05-15T09:26:02.742Z,9.3
2019-05-15T09:27:03.816Z,9.2
2019-05-15T09:28:03.143Z,9.1
2019-05-15T09:29:02.895Z,9.2
2019-05-15T09:30:03.929Z,9.3
2019-05-15T09:31:03.774Z,9.3
2019-05-15T09:32:03.600Z,9.3
2019-05-15T09:33:02.933Z,9.3
2019-05-15T09:34:03.448Z,9.2
2019-05-15T09:35:04.030Z,9.4
2019-05-15T09:36:03.487Z,9.4
2019-05-15T09:37:03.366Z,9.5
2019-05-15T09:38:03.300Z,9.6
2019-05-15T09:39:03.848Z,9.6
2019-05-15T09:40:03.720Z,9.6
2019-05-15T09:41:03.632Z,9.7
2019-05-15T09:42:03.553Z,9.8
2019-05-15T09:43:03.471Z,9.9
2019-05-15T09:44:02.986Z,9.8
2019-05-15T09:45:03.244Z,9.8
2019-05-15T09:46:03.377Z,9.9
2019-05-15T09:47:03.162Z,10
2019-05-15T09:48:03.029Z,9.9
2019-05-15T09:49:03.134Z,9.8
2019-05-15T09:50:03.175Z,9.8
2019-05-15T09:51:02.927Z,9.9
2019-05-15T09:52:02.972Z,9.9
2019-05-15T09:53:02.852Z,9.7
2019-05-15T09:54:02.633Z,9.8
2019-05-15T09:55:03.114Z,9.6
2019-05-15T09:56:03.045Z,9.6
2019-05-15T09:57:03.017Z,9.5
2019-05-15T09:58:03.488Z,9.5
2019-05-15T09:59:03.092Z,9.5
2019-05-15T10:00:02.820Z,9.3
2019-05-15T10:01:03.821Z,9.3
2019-05-15T10:02:03.701Z,9.4
2019-05-15T10:03:02.706Z,9.3
2019-05-15T10:04:03.671Z,9.3
2019-05-15T10:05:11.607Z,9.3
2019-05-15T10:06:02.871Z,9.3
2019-05-15T10:07:03.349Z,9.4
2019-05-15T10:08:03.663Z,9.3
2019-05-15T10:09:03.515Z,9.3
2019-05-15T10:10:03.717Z,9.3
2019-05-15T10:11:03.558Z,9.4
2019-05-15T10:12:03.529Z,9.4
2019-05-15T10:13:03.360Z,9.4
2019-05-15T10:14:03.597Z,9.3
2019-05-15T10:15:03.615Z,9.3
2019-05-15T10:16:03.630Z,9.4
2019-05-15T10:17:03.546Z,9.4
2019-05-15T10:18:03.280Z,9.4
2019-05-15T10:19:03.361Z,9.4
2019-05-15T10:20:03.389Z,9.5
2019-05-15T10:21:03.424Z,9.6
2019-05-15T10:22:03.067Z,9.6
2019-05-15T10:23:03.217Z,9.8
2019-05-15T10:24:03.432Z,9.8
2019-05-15T10:25:03.122Z,9.8
2019-05-15T10:26:03.032Z,9.9
2019-05-15T10:27:03.120Z,10
2019-05-15T10:28:02.821Z,9.9
2019-05-15T10:29:03.679Z,10
2019-05-15T10:30:02.972Z,10.1
2019-05-15T10:31:03.090Z,10.3
2019-05-15T10:32:02.758Z,10.1
2019-05-15T10:33:02.860Z,10.1
2019-05-15T10:34:03.784Z,10.2
2019-05-15T10:35:02.922Z,10.2
2019-05-15T10:36:02.706Z,10.4
2019-05-15T10:37:02.751Z,10.4
2019-05-15T10:38:03.750Z,10.5
2019-05-15T10:39:03.467Z,10.5
2019-05-15T10:40:03.571Z,10.4
2019-05-15T10:41:15.346Z,10.3
2019-05-15T10:42:02.689Z,10.3
2019-05-15T10:43:03.265Z,10.3
2019-05-15T10:44:03.567Z,10.3
2019-05-15T10:45:03.428Z,10.3
2019-05-15T10:46:03.121Z,10.3
2019-05-15T10:47:03.336Z,10.2
2019-05-15T10:48:03.556Z,10.1
2019-05-15T10:49:03.132Z,10.1
2019-05-15T10:50:03.579Z,10.2
2019-05-15T10:51:10.601Z,10.3
2019-05-15T10:52:03.083Z,10.4
2019-05-15T10:53:03.078Z,10.7
2019-05-15T10:54:03.025Z,10.7
2019-05-15T10:55:03.404Z,10.8
2019-05-15T10:56:02.999Z,10.4
2019-05-15T10:57:08.580Z,10.4
2019-05-15T10:58:03.008Z,10.4
2019-05-15T10:59:03.717Z,10.3
2019-05-15T11:00:03.215Z,10.4
2019-05-15T11:01:04.465Z,10.4
2019-05-15T11:02:02.936Z,10.6
2019-05-15T11:03:03.304Z,10.7
2019-05-15T11:04:03.216Z,10.6
2019-05-15T11:05:02.954Z,10.6
2019-05-15T11:06:03.104Z,10.5
2019-05-15T11:07:02.734Z,10.5
2019-05-15T11:08:02.628Z,10.5
2019-05-15T11:09:02.806Z,10.7
2019-05-15T11:10:03.789Z,10.5
2019-05-15T11:11:02.640Z,10.4
2019-05-15T11:12:03.086Z,10.4
2019-05-15T11:13:03.015Z,10.3
2019-05-15T11:14:02.683Z,10.3
2019-05-15T11:15:02.907Z,10.3
2019-05-15T11:16:02.882Z,10.2
2019-05-15T11:17:02.816Z,10
2019-05-15T11:18:03.516Z,10.1
2019-05-15T11:19:02.905Z,10.1
2019-05-15T11:20:03.877Z,10.2
2019-05-15T11:21:03.073Z,10.1
2019-05-15T11:22:03.515Z,10.1
2019-05-15T11:23:03.857Z,10.2
2019-05-15T11:24:03.263Z,10.2
2019-05-15T11:25:03.491Z,10.3
2019-05-15T11:26:03.420Z,10.3
2019-05-15T11:27:03.254Z,10.1
2019-05-15T11:28:03.335Z,10.1
2019-05-15T11:29:03.270Z,10.1
2019-05-15T11:30:03.232Z,10.1
2019-05-15T11:31:03.051Z,10
2019-05-15T11:32:03.257Z,10
2019-05-15T11:33:03.257Z,10.1
2019-05-15T11:34:03.023Z,10.3
2019-05-15T11:35:04.963Z,10.2
2019-05-15T11:36:06.579Z,10.2
2019-05-15T11:37:03.013Z,10
2019-05-15T11:38:02.752Z,9.9
2019-05-15T11:39:02.949Z,9.9
2019-05-15T11:40:03.058Z,10
2019-05-15T11:41:04.931Z,10
2019-05-15T11:42:02.646Z,9.9
2019-05-15T11:43:03.087Z,9.9
2019-05-15T11:44:02.736Z,10
2019-05-15T11:45:03.031Z,10.1
2019-05-15T11:46:03.070Z,10.2
2019-05-15T11:47:02.759Z,10.1
2019-05-15T11:48:02.665Z,10.1
2019-05-15T11:49:02.888Z,9.8
2019-05-15T11:50:02.941Z,9.9
2019-05-15T11:51:03.605Z,9.9
2019-05-15T11:52:02.744Z,9.9
2019-05-15T11:53:03.377Z,9.9
2019-05-15T11:54:02.716Z,9.9
2019-05-15T11:55:03.642Z,10
2019-05-15T11:56:03.592Z,10
2019-05-15T11:57:03.426Z,10
2019-05-15T11:58:03.515Z,10.1
2019-05-15T11:59:03.485Z,10.1
2019-05-15T12:00:05.286Z,9.9
2019-05-15T12:01:03.511Z,9.9
2019-05-15T12:02:02.970Z,9.8
2019-05-15T12:03:03.277Z,9.8
2019-05-15T12:04:02.948Z,9.9
2019-05-15T12:05:03.280Z,9.9
2019-05-15T12:06:22.891Z,9.9
2019-05-15T12:07:03.360Z,9.9
2019-05-15T12:08:03.327Z,10
2019-05-15T12:09:03.186Z,10
2019-05-15T12:10:03.233Z,10.1
2019-05-15T12:11:03.275Z,10
2019-05-15T12:12:03.099Z,10.1
2019-05-15T12:13:03.193Z,10
2019-05-15T12:14:03.180Z,9.9
2019-05-15T12:15:03.278Z,9.8
2019-05-15T12:16:02.944Z,9.8
2019-05-15T12:17:15.689Z,9.8
2019-05-15T12:18:02.544Z,9.9
2019-05-15T12:21:03.796Z,9.8
2019-05-15T12:22:03.785Z,9.9
2019-05-15T12:23:03.662Z,9.9
2019-05-15T12:24:03.479Z,9.8
2019-05-15T12:25:03.550Z,9.8
2019-05-15T12:26:03.387Z,9.9
2019-05-15T12:27:18.593Z,9.9
2019-05-15T12:28:03.433Z,10
2019-05-15T12:29:03.731Z,10
2019-05-15T12:30:03.588Z,10
2019-05-15T12:31:03.463Z,10
2019-05-15T12:32:36.517Z,10.1
2019-05-15T12:34:03.177Z,9.9
2019-05-15T12:35:03.389Z,10.1
2019-05-15T12:36:03.040Z,10.1
2019-05-15T12:37:03.279Z,10
2019-05-15T12:38:03.284Z,9.9
2019-05-15T12:39:27.019Z,9.9
2019-05-15T13:00:03.353Z,9.7
2019-05-15T13:01:21.786Z,9.7
2019-05-15T13:02:03.151Z,9.8
2019-05-15T13:03:03.627Z,9.8
2019-05-15T13:04:03.100Z,9.7
2019-05-15T13:05:03.528Z,9.6
2019-05-15T13:06:03.252Z,9.6
2019-05-15T13:07:19.386Z,9.6
2019-05-15T13:08:02.861Z,9.6
2019-05-15T13:09:03.240Z,9.6
2019-05-15T13:10:03.089Z,9.6
2019-05-15T13:11:03.097Z,9.8
2019-05-15T13:12:03.144Z,9.8
2019-05-15T13:13:08.804Z,9.7
2019-05-15T13:14:02.693Z,9.7
2019-05-15T13:15:03.784Z,9.7
2019-05-15T13:16:02.921Z,9.6
2019-05-15T13:17:03.705Z,9.6
2019-05-15T13:18:03.614Z,9.6
2019-05-15T13:19:03.740Z,9.6
2019-05-15T13:20:02.897Z,9.7
2019-05-15T13:21:03.583Z,9.6
2019-05-15T13:22:03.546Z,9.6
2019-05-15T13:23:03.503Z,9.6
2019-05-15T13:24:03.543Z,9.5
2019-05-15T13:25:03.809Z,9.4
2019-05-15T13:26:03.280Z,9.5
2019-05-15T13:27:03.652Z,9.5
2019-05-15T13:28:03.433Z,9.4
2019-05-15T13:29:03.677Z,9.4
2019-05-15T13:30:03.545Z,9.4
2019-05-15T13:31:03.296Z,9.4
2019-05-15T13:32:03.446Z,9.4
2019-05-15T13:33:03.295Z,9.4
2019-05-15T13:34:03.078Z,9.5
2019-05-15T13:35:03.139Z,9.4
2019-05-15T13:36:03.050Z,9.4
2019-05-15T13:37:03.007Z,9.5
2019-05-15T13:38:03.079Z,9.5
2019-05-15T13:39:02.906Z,9.5
2019-05-15T13:40:02.924Z,9.4
2019-05-15T13:41:02.797Z,9.4
2019-05-15T13:42:02.732Z,9.5
2019-05-15T13:43:02.699Z,9.5
2019-05-15T13:44:02.998Z,9.4
2019-05-15T13:45:03.445Z,9.5
2019-05-15T13:46:02.931Z,9.4
2019-05-15T13:47:02.770Z,9.5
2019-05-15T13:48:02.758Z,9.4
2019-05-15T13:49:03.612Z,9.4
2019-05-15T13:50:03.523Z,9.4
2019-05-15T13:51:03.689Z,9.5
2019-05-15T13:52:03.159Z,9.5
2019-05-15T13:53:02.949Z,9.4
2019-05-15T13:54:03.279Z,9.4
2019-05-15T13:55:03.007Z,9.5
2019-05-15T13:56:03.603Z,9.5
2019-05-15T13:57:03.769Z,9.5
2019-05-15T13:58:03.398Z,9.5
2019-05-15T13:59:03.172Z,9.5
2019-05-15T14:00:03.700Z,9.5
2019-05-15T14:01:03.126Z,9.6
2019-05-15T14:02:03.255Z,9.6
2019-05-15T14:03:03.106Z,9.5
2019-05-15T14:04:03.337Z,9.5
2019-05-15T14:05:03.209Z,9.6
2019-05-15T14:06:03.108Z,9.6
2019-05-15T14:07:02.896Z,9.5
2019-05-15T14:08:03.088Z,9.4
2019-05-15T14:09:03.250Z,9.4
2019-05-15T14:10:03.205Z,9.3